sensor_id;sensor_type;location;lat;lon;timestamp;P1;durP1;ratioP1;P2;durP2;ratioP2
74908;SDS011;63468;52.058;4.824;2023-07-20T00:00:33;29.95;;;27.30;;
74908;SDS011;63468;52.058;4.824;2023-07-20T00:03:11;30.45;;;27.88;;
74908;SDS011;63468;52.058;4.824;2023-07-20T00:05:44;27.65;;;25.55;;
74908;SDS011;63468;52.058;4.824;2023-07-20T00:08:10;27.15;;;24.95;;
74908;SDS011;63468;52.058;4.824;2023-07-20T00:10:36;26.48;;;24.33;;
74908;SDS011;63468;52.058;4.824;2023-07-20T00:13:01;26.30;;;24.15;;
74908;SDS011;63468;52.058;4.824;2023-07-20T00:15:26;26.63;;;24.70;;
74908;SDS011;63468;52.058;4.824;2023-07-20T00:17:52;26.85;;;24.55;;
74908;SDS011;63468;52.058;4.824;2023-07-20T00:20:17;27.67;;;25.42;;
74908;SDS011;63468;52.058;4.824;2023-07-20T00:22:43;27.05;;;24.75;;
74908;SDS011;63468;52.058;4.824;2023-07-20T00:25:08;26.85;;;24.77;;
74908;SDS011;63468;52.058;4.824;2023-07-20T00:27:34;26.42;;;24.30;;
74908;SDS011;63468;52.058;4.824;2023-07-20T00:29:59;25.75;;;23.75;;
74908;SDS011;63468;52.058;4.824;2023-07-20T00:32:25;26.17;;;23.92;;
74908;SDS011;63468;52.058;4.824;2023-07-20T00:34:50;26.73;;;24.73;;
74908;SDS011;63468;52.058;4.824;2023-07-20T00:37:15;26.50;;;24.45;;
74908;SDS011;63468;52.058;4.824;2023-07-20T00:39:41;26.52;;;24.50;;
74908;SDS011;63468;52.058;4.824;2023-07-20T00:42:06;26.00;;;23.80;;
74908;SDS011;63468;52.058;4.824;2023-07-20T00:44:32;26.08;;;23.85;;
74908;SDS011;63468;52.058;4.824;2023-07-20T00:47:07;25.20;;;23.30;;
74908;SDS011;63468;52.058;4.824;2023-07-20T00:49:32;22.80;;;21.15;;
74908;SDS011;63468;52.058;4.824;2023-07-20T00:51:58;24.67;;;22.92;;
74908;SDS011;63468;52.058;4.824;2023-07-20T00:54:25;23.27;;;21.58;;
74908;SDS011;63468;52.058;4.824;2023-07-20T00:56:50;22.17;;;20.48;;
74908;SDS011;63468;52.058;4.824;2023-07-20T00:59:18;21.77;;;20.30;;
74908;SDS011;63468;52.058;4.824;2023-07-20T01:01:43;20.98;;;19.48;;
74908;SDS011;63468;52.058;4.824;2023-07-20T01:04:09;21.13;;;19.63;;
74908;SDS011;63468;52.058;4.824;2023-07-20T01:09:56;22.25;;;20.52;;
74908;SDS011;63468;52.058;4.824;2023-07-20T01:14:44;20.95;;;19.45;;
74908;SDS011;63468;52.058;4.824;2023-07-20T01:17:09;21.08;;;19.63;;
74908;SDS011;63468;52.058;4.824;2023-07-20T01:19:35;20.73;;;18.95;;
74908;SDS011;63468;52.058;4.824;2023-07-20T01:27:46;21.52;;;20.02;;
74908;SDS011;63468;52.058;4.824;2023-07-20T01:33:19;22.00;;;19.98;;
74908;SDS011;63468;52.058;4.824;2023-07-20T01:35:52;21.17;;;19.73;;
74908;SDS011;63468;52.058;4.824;2023-07-20T01:38:19;21.35;;;19.90;;
74908;SDS011;63468;52.058;4.824;2023-07-20T01:40:45;20.63;;;19.17;;
74908;SDS011;63468;52.058;4.824;2023-07-20T01:43:11;21.70;;;19.90;;
74908;SDS011;63468;52.058;4.824;2023-07-20T01:45:36;21.35;;;19.40;;
74908;SDS011;63468;52.058;4.824;2023-07-20T01:48:02;21.52;;;19.98;;
74908;SDS011;63468;52.058;4.824;2023-07-20T01:50:28;21.25;;;19.65;;
74908;SDS011;63468;52.058;4.824;2023-07-20T01:52:54;21.58;;;19.98;;
74908;SDS011;63468;52.058;4.824;2023-07-20T01:55:19;22.60;;;21.00;;
74908;SDS011;63468;52.058;4.824;2023-07-20T01:57:46;22.42;;;20.83;;
74908;SDS011;63468;52.058;4.824;2023-07-20T02:00:12;22.23;;;20.63;;
74908;SDS011;63468;52.058;4.824;2023-07-20T02:02:37;22.38;;;20.60;;
74908;SDS011;63468;52.058;4.824;2023-07-20T02:05:03;22.70;;;21.00;;
74908;SDS011;63468;52.058;4.824;2023-07-20T02:07:28;23.02;;;21.27;;
74908;SDS011;63468;52.058;4.824;2023-07-20T02:09:53;23.05;;;21.25;;
74908;SDS011;63468;52.058;4.824;2023-07-20T02:12:19;22.10;;;20.45;;
74908;SDS011;63468;52.058;4.824;2023-07-20T02:14:44;22.25;;;20.63;;
74908;SDS011;63468;52.058;4.824;2023-07-20T02:17:09;22.00;;;20.40;;
74908;SDS011;63468;52.058;4.824;2023-07-20T02:19:36;21.65;;;20.13;;
74908;SDS011;63468;52.058;4.824;2023-07-20T02:22:02;22.02;;;20.35;;
74908;SDS011;63468;52.058;4.824;2023-07-20T02:24:27;23.75;;;21.83;;
74908;SDS011;63468;52.058;4.824;2023-07-20T02:26:52;21.13;;;19.63;;
74908;SDS011;63468;52.058;4.824;2023-07-20T02:29:18;21.90;;;20.30;;
74908;SDS011;63468;52.058;4.824;2023-07-20T02:31:43;21.23;;;19.73;;
74908;SDS011;63468;52.058;4.824;2023-07-20T02:34:08;21.05;;;19.50;;
74908;SDS011;63468;52.058;4.824;2023-07-20T02:36:34;21.90;;;20.33;;
74908;SDS011;63468;52.058;4.824;2023-07-20T02:39:00;21.10;;;19.70;;
74908;SDS011;63468;52.058;4.824;2023-07-20T02:41:27;22.67;;;20.88;;
74908;SDS011;63468;52.058;4.824;2023-07-20T02:43:52;21.63;;;20.02;;
74908;SDS011;63468;52.058;4.824;2023-07-20T02:46:18;22.60;;;20.80;;
74908;SDS011;63468;52.058;4.824;2023-07-20T02:48:43;21.65;;;20.05;;
74908;SDS011;63468;52.058;4.824;2023-07-20T02:51:08;22.17;;;20.42;;
74908;SDS011;63468;52.058;4.824;2023-07-20T02:53:34;22.67;;;21.05;;
74908;SDS011;63468;52.058;4.824;2023-07-20T02:55:59;22.65;;;21.05;;
74908;SDS011;63468;52.058;4.824;2023-07-20T02:58:25;22.50;;;20.98;;
74908;SDS011;63468;52.058;4.824;2023-07-20T03:00:50;22.05;;;20.25;;
74908;SDS011;63468;52.058;4.824;2023-07-20T03:03:15;23.50;;;21.80;;
74908;SDS011;63468;52.058;4.824;2023-07-20T03:05:41;21.70;;;20.20;;
74908;SDS011;63468;52.058;4.824;2023-07-20T03:08:06;23.48;;;21.55;;
74908;SDS011;63468;52.058;4.824;2023-07-20T03:10:32;23.27;;;21.58;;
74908;SDS011;63468;52.058;4.824;2023-07-20T03:12:57;22.60;;;20.85;;
74908;SDS011;63468;52.058;4.824;2023-07-20T03:15:23;23.35;;;21.55;;
74908;SDS011;63468;52.058;4.824;2023-07-20T03:17:48;22.58;;;20.90;;
74908;SDS011;63468;52.058;4.824;2023-07-20T03:20:14;22.20;;;20.50;;
74908;SDS011;63468;52.058;4.824;2023-07-20T03:22:39;22.40;;;20.70;;
74908;SDS011;63468;52.058;4.824;2023-07-20T03:25:04;23.02;;;21.23;;
74908;SDS011;63468;52.058;4.824;2023-07-20T03:27:30;23.48;;;21.77;;
74908;SDS011;63468;52.058;4.824;2023-07-20T03:29:55;23.42;;;21.70;;
74908;SDS011;63468;52.058;4.824;2023-07-20T03:32:21;22.80;;;21.00;;
74908;SDS011;63468;52.058;4.824;2023-07-20T03:34:46;22.85;;;21.05;;
74908;SDS011;63468;52.058;4.824;2023-07-20T03:37:12;24.13;;;22.08;;
74908;SDS011;63468;52.058;4.824;2023-07-20T03:39:38;22.70;;;20.42;;
74908;SDS011;63468;52.058;4.824;2023-07-20T03:42:03;23.45;;;21.45;;
74908;SDS011;63468;52.058;4.824;2023-07-20T03:44:30;21.88;;;19.80;;
74908;SDS011;63468;52.058;4.824;2023-07-20T03:46:55;19.83;;;18.23;;
74908;SDS011;63468;52.058;4.824;2023-07-20T03:49:20;20.35;;;18.65;;
74908;SDS011;63468;52.058;4.824;2023-07-20T03:51:46;21.10;;;19.33;;
74908;SDS011;63468;52.058;4.824;2023-07-20T03:54:11;20.42;;;18.80;;
74908;SDS011;63468;52.058;4.824;2023-07-20T03:56:37;22.08;;;20.17;;
74908;SDS011;63468;52.058;4.824;2023-07-20T03:59:02;22.25;;;20.33;;
74908;SDS011;63468;52.058;4.824;2023-07-20T04:01:27;25.15;;;23.02;;
74908;SDS011;63468;52.058;4.824;2023-07-20T04:03:53;24.40;;;22.15;;
74908;SDS011;63468;52.058;4.824;2023-07-20T04:06:18;24.02;;;21.92;;
74908;SDS011;63468;52.058;4.824;2023-07-20T04:08:44;26.85;;;24.45;;
74908;SDS011;63468;52.058;4.824;2023-07-20T04:11:09;25.75;;;23.45;;
74908;SDS011;63468;52.058;4.824;2023-07-20T04:13:35;24.95;;;22.60;;
74908;SDS011;63468;52.058;4.824;2023-07-20T04:16:00;25.60;;;23.40;;
74908;SDS011;63468;52.058;4.824;2023-07-20T04:18:27;24.45;;;22.35;;
74908;SDS011;63468;52.058;4.824;2023-07-20T04:20:52;25.20;;;23.10;;
74908;SDS011;63468;52.058;4.824;2023-07-20T04:23:18;23.70;;;21.75;;
74908;SDS011;63468;52.058;4.824;2023-07-20T04:25:43;25.55;;;23.27;;
74908;SDS011;63468;52.058;4.824;2023-07-20T04:28:09;25.33;;;23.23;;
74908;SDS011;63468;52.058;4.824;2023-07-20T04:30:35;26.15;;;23.95;;
74908;SDS011;63468;52.058;4.824;2023-07-20T04:33:01;26.08;;;23.58;;
74908;SDS011;63468;52.058;4.824;2023-07-20T04:35:44;26.30;;;23.85;;
74908;SDS011;63468;52.058;4.824;2023-07-20T04:38:11;26.50;;;24.05;;
74908;SDS011;63468;52.058;4.824;2023-07-20T04:40:36;26.80;;;24.40;;
74908;SDS011;63468;52.058;4.824;2023-07-20T04:43:01;26.42;;;24.13;;
74908;SDS011;63468;52.058;4.824;2023-07-20T04:45:29;25.77;;;23.30;;
74908;SDS011;63468;52.058;4.824;2023-07-20T04:47:55;26.20;;;23.88;;
74908;SDS011;63468;52.058;4.824;2023-07-20T04:50:20;25.77;;;23.63;;
74908;SDS011;63468;52.058;4.824;2023-07-20T04:52:45;24.42;;;22.25;;
74908;SDS011;63468;52.058;4.824;2023-07-20T04:55:11;21.13;;;19.52;;
74908;SDS011;63468;52.058;4.824;2023-07-20T04:57:36;19.88;;;18.40;;
74908;SDS011;63468;52.058;4.824;2023-07-20T05:00:02;18.95;;;17.58;;
74908;SDS011;63468;52.058;4.824;2023-07-20T05:02:28;18.45;;;16.95;;
74908;SDS011;63468;52.058;4.824;2023-07-20T05:04:54;19.20;;;17.40;;
74908;SDS011;63468;52.058;4.824;2023-07-20T05:07:19;16.35;;;15.15;;
74908;SDS011;63468;52.058;4.824;2023-07-20T05:09:44;15.40;;;14.18;;
74908;SDS011;63468;52.058;4.824;2023-07-20T05:12:10;14.68;;;13.38;;
74908;SDS011;63468;52.058;4.824;2023-07-20T05:14:37;15.70;;;14.20;;
74908;SDS011;63468;52.058;4.824;2023-07-20T05:17:02;16.60;;;15.30;;
74908;SDS011;63468;52.058;4.824;2023-07-20T05:19:28;18.55;;;17.05;;
74908;SDS011;63468;52.058;4.824;2023-07-20T05:21:53;18.63;;;17.20;;
74908;SDS011;63468;52.058;4.824;2023-07-20T05:24:18;19.17;;;17.63;;
74908;SDS011;63468;52.058;4.824;2023-07-20T05:26:44;19.63;;;18.15;;
74908;SDS011;63468;52.058;4.824;2023-07-20T05:29:09;18.90;;;17.48;;
74908;SDS011;63468;52.058;4.824;2023-07-20T05:31:34;18.85;;;17.35;;
74908;SDS011;63468;52.058;4.824;2023-07-20T05:34:00;19.38;;;17.88;;
74908;SDS011;63468;52.058;4.824;2023-07-20T05:36:25;18.33;;;16.83;;
74908;SDS011;63468;52.058;4.824;2023-07-20T05:38:50;18.20;;;16.90;;
74908;SDS011;63468;52.058;4.824;2023-07-20T05:41:16;17.88;;;16.42;;
74908;SDS011;63468;52.058;4.824;2023-07-20T05:43:41;18.67;;;17.02;;
74908;SDS011;63468;52.058;4.824;2023-07-20T05:46:07;18.50;;;17.10;;
74908;SDS011;63468;52.058;4.824;2023-07-20T05:48:32;18.67;;;17.02;;
74908;SDS011;63468;52.058;4.824;2023-07-20T05:50:58;17.48;;;16.05;;
74908;SDS011;63468;52.058;4.824;2023-07-20T05:53:23;17.05;;;15.55;;
74908;SDS011;63468;52.058;4.824;2023-07-20T05:55:55;17.17;;;15.98;;
74908;SDS011;63468;52.058;4.824;2023-07-20T05:58:20;17.02;;;15.73;;
74908;SDS011;63468;52.058;4.824;2023-07-20T06:00:49;15.35;;;14.25;;
74908;SDS011;63468;52.058;4.824;2023-07-20T06:03:14;15.55;;;14.45;;
74908;SDS011;63468;52.058;4.824;2023-07-20T06:05:41;15.30;;;14.20;;
74908;SDS011;63468;52.058;4.824;2023-07-20T06:08:07;16.48;;;15.23;;
74908;SDS011;63468;52.058;4.824;2023-07-20T06:10:32;16.45;;;15.25;;
74908;SDS011;63468;52.058;4.824;2023-07-20T06:12:57;17.45;;;16.05;;
74908;SDS011;63468;52.058;4.824;2023-07-20T06:15:31;16.92;;;15.60;;
74908;SDS011;63468;52.058;4.824;2023-07-20T06:17:57;16.55;;;15.35;;
74908;SDS011;63468;52.058;4.824;2023-07-20T06:20:23;16.70;;;15.40;;
74908;SDS011;63468;52.058;4.824;2023-07-20T06:22:49;16.77;;;15.52;;
74908;SDS011;63468;52.058;4.824;2023-07-20T06:25:14;16.40;;;15.20;;
74908;SDS011;63468;52.058;4.824;2023-07-20T06:27:39;16.60;;;15.30;;
74908;SDS011;63468;52.058;4.824;2023-07-20T06:30:05;16.85;;;15.43;;
74908;SDS011;63468;52.058;4.824;2023-07-20T06:32:31;15.82;;;14.73;;
74908;SDS011;63468;52.058;4.824;2023-07-20T06:34:56;15.75;;;14.65;;
74908;SDS011;63468;52.058;4.824;2023-07-20T06:37:21;16.23;;;15.02;;
74908;SDS011;63468;52.058;4.824;2023-07-20T06:39:47;15.68;;;14.57;;
74908;SDS011;63468;52.058;4.824;2023-07-20T06:42:12;15.48;;;14.38;;
74908;SDS011;63468;52.058;4.824;2023-07-20T06:44:37;16.10;;;14.90;;
74908;SDS011;63468;52.058;4.824;2023-07-20T06:47:03;15.90;;;14.75;;
74908;SDS011;63468;52.058;4.824;2023-07-20T06:49:28;15.50;;;14.40;;
74908;SDS011;63468;52.058;4.824;2023-07-20T06:51:54;16.92;;;15.68;;
74908;SDS011;63468;52.058;4.824;2023-07-20T06:54:20;15.45;;;14.35;;
74908;SDS011;63468;52.058;4.824;2023-07-20T06:56:45;15.43;;;14.43;;
74908;SDS011;63468;52.058;4.824;2023-07-20T06:59:10;15.75;;;14.60;;
74908;SDS011;63468;52.058;4.824;2023-07-20T07:01:36;15.38;;;14.38;;
74908;SDS011;63468;52.058;4.824;2023-07-20T07:04:01;15.63;;;14.43;;
74908;SDS011;63468;52.058;4.824;2023-07-20T07:06:27;14.80;;;13.77;;
74908;SDS011;63468;52.058;4.824;2023-07-20T07:08:53;16.00;;;14.90;;
74908;SDS011;63468;52.058;4.824;2023-07-20T07:11:18;15.80;;;14.57;;
74908;SDS011;63468;52.058;4.824;2023-07-20T07:13:43;15.68;;;14.68;;
74908;SDS011;63468;52.058;4.824;2023-07-20T07:16:11;16.05;;;14.85;;
74908;SDS011;63468;52.058;4.824;2023-07-20T07:18:37;16.00;;;14.73;;
74908;SDS011;63468;52.058;4.824;2023-07-20T07:21:02;16.05;;;14.93;;
74908;SDS011;63468;52.058;4.824;2023-07-20T07:23:27;16.10;;;14.90;;
74908;SDS011;63468;52.058;4.824;2023-07-20T07:25:53;15.40;;;14.40;;
74908;SDS011;63468;52.058;4.824;2023-07-20T07:28:18;15.65;;;14.55;;
74908;SDS011;63468;52.058;4.824;2023-07-20T07:30:43;15.60;;;14.60;;
74908;SDS011;63468;52.058;4.824;2023-07-20T07:33:09;16.75;;;15.15;;
74908;SDS011;63468;52.058;4.824;2023-07-20T07:35:35;16.15;;;15.05;;
74908;SDS011;63468;52.058;4.824;2023-07-20T07:38:01;15.30;;;14.30;;
74908;SDS011;63468;52.058;4.824;2023-07-20T07:40:26;15.57;;;14.45;;
74908;SDS011;63468;52.058;4.824;2023-07-20T07:42:51;15.43;;;14.32;;
74908;SDS011;63468;52.058;4.824;2023-07-20T07:45:17;15.20;;;14.20;;
74908;SDS011;63468;52.058;4.824;2023-07-20T07:47:42;16.10;;;14.95;;
74908;SDS011;63468;52.058;4.824;2023-07-20T07:50:08;15.27;;;14.20;;
74908;SDS011;63468;52.058;4.824;2023-07-20T07:52:35;15.98;;;14.60;;
74908;SDS011;63468;52.058;4.824;2023-07-20T07:55:00;15.77;;;14.75;;
74908;SDS011;63468;52.058;4.824;2023-07-20T07:57:25;15.27;;;14.27;;
74908;SDS011;63468;52.058;4.824;2023-07-20T07:59:51;15.82;;;14.73;;
74908;SDS011;63468;52.058;4.824;2023-07-20T08:02:16;15.52;;;14.43;;
74908;SDS011;63468;52.058;4.824;2023-07-20T08:04:42;15.75;;;14.65;;
74908;SDS011;63468;52.058;4.824;2023-07-20T08:07:07;15.85;;;14.75;;
74908;SDS011;63468;52.058;4.824;2023-07-20T08:09:32;15.95;;;14.82;;
74908;SDS011;63468;52.058;4.824;2023-07-20T08:11:58;16.30;;;15.20;;
74908;SDS011;63468;52.058;4.824;2023-07-20T08:14:24;16.63;;;15.43;;
74908;SDS011;63468;52.058;4.824;2023-07-20T08:16:50;17.10;;;15.90;;
74908;SDS011;63468;52.058;4.824;2023-07-20T08:19:15;16.60;;;15.50;;
74908;SDS011;63468;52.058;4.824;2023-07-20T08:21:40;16.90;;;15.75;;
74908;SDS011;63468;52.058;4.824;2023-07-20T08:24:06;17.60;;;16.40;;
74908;SDS011;63468;52.058;4.824;2023-07-20T08:26:32;17.20;;;15.95;;
74908;SDS011;63468;52.058;4.824;2023-07-20T08:28:57;17.52;;;16.10;;
74908;SDS011;63468;52.058;4.824;2023-07-20T08:31:22;17.45;;;16.25;;
74908;SDS011;63468;52.058;4.824;2023-07-20T08:33:48;16.98;;;15.82;;
74908;SDS011;63468;52.058;4.824;2023-07-20T08:36:13;17.00;;;15.80;;
74908;SDS011;63468;52.058;4.824;2023-07-20T08:38:39;17.50;;;16.20;;
74908;SDS011;63468;52.058;4.824;2023-07-20T08:41:04;17.65;;;16.33;;
74908;SDS011;63468;52.058;4.824;2023-07-20T08:43:29;16.70;;;15.60;;
74908;SDS011;63468;52.058;4.824;2023-07-20T08:45:55;16.95;;;15.75;;
74908;SDS011;63468;52.058;4.824;2023-07-20T08:48:21;16.90;;;15.70;;
74908;SDS011;63468;52.058;4.824;2023-07-20T08:50:47;16.42;;;15.20;;
74908;SDS011;63468;52.058;4.824;2023-07-20T08:53:16;15.50;;;14.48;;
74908;SDS011;63468;52.058;4.824;2023-07-20T08:55:43;15.88;;;14.77;;
74908;SDS011;63468;52.058;4.824;2023-07-20T08:58:10;15.80;;;14.70;;
74908;SDS011;63468;52.058;4.824;2023-07-20T09:00:37;16.05;;;14.82;;
74908;SDS011;63468;52.058;4.824;2023-07-20T09:03:02;15.35;;;14.15;;
74908;SDS011;63468;52.058;4.824;2023-07-20T09:05:28;15.55;;;14.45;;
74908;SDS011;63468;52.058;4.824;2023-07-20T09:07:55;16.05;;;14.95;;
74908;SDS011;63468;52.058;4.824;2023-07-20T09:10:20;16.48;;;15.38;;
74908;SDS011;63468;52.058;4.824;2023-07-20T09:12:46;16.58;;;15.38;;
74908;SDS011;63468;52.058;4.824;2023-07-20T09:15:12;16.58;;;15.48;;
74908;SDS011;63468;52.058;4.824;2023-07-20T09:17:38;17.67;;;16.48;;
74908;SDS011;63468;52.058;4.824;2023-07-20T09:20:04;17.00;;;15.80;;
74908;SDS011;63468;52.058;4.824;2023-07-20T09:22:33;17.23;;;15.93;;
74908;SDS011;63468;52.058;4.824;2023-07-20T09:24:58;17.13;;;15.93;;
74908;SDS011;63468;52.058;4.824;2023-07-20T09:27:34;17.00;;;15.90;;
74908;SDS011;63468;52.058;4.824;2023-07-20T09:30:01;15.90;;;14.70;;
74908;SDS011;63468;52.058;4.824;2023-07-20T09:32:27;15.07;;;13.98;;
74908;SDS011;63468;52.058;4.824;2023-07-20T09:34:52;16.00;;;14.93;;
74908;SDS011;63468;52.058;4.824;2023-07-20T09:37:21;15.82;;;14.70;;
74908;SDS011;63468;52.058;4.824;2023-07-20T09:39:47;14.93;;;13.82;;
74908;SDS011;63468;52.058;4.824;2023-07-20T09:42:14;15.75;;;14.65;;
74908;SDS011;63468;52.058;4.824;2023-07-20T09:44:40;16.42;;;15.18;;
74908;SDS011;63468;52.058;4.824;2023-07-20T09:47:07;16.77;;;15.68;;
74908;SDS011;63468;52.058;4.824;2023-07-20T09:49:32;16.00;;;14.73;;
74908;SDS011;63468;52.058;4.824;2023-07-20T09:51:58;15.60;;;14.50;;
74908;SDS011;63468;52.058;4.824;2023-07-20T09:54:25;15.43;;;14.15;;
74908;SDS011;63468;52.058;4.824;2023-07-20T09:56:52;14.45;;;13.45;;
74908;SDS011;63468;52.058;4.824;2023-07-20T09:59:17;14.75;;;13.65;;
74908;SDS011;63468;52.058;4.824;2023-07-20T10:01:43;15.60;;;14.35;;
74908;SDS011;63468;52.058;4.824;2023-07-20T10:04:09;15.30;;;14.20;;
74908;SDS011;63468;52.058;4.824;2023-07-20T10:06:36;15.15;;;14.10;;
74908;SDS011;63468;52.058;4.824;2023-07-20T10:09:05;14.35;;;13.35;;
74908;SDS011;63468;52.058;4.824;2023-07-20T10:11:33;14.48;;;13.27;;
74908;SDS011;63468;52.058;4.824;2023-07-20T10:14:00;13.13;;;12.23;;
74908;SDS011;63468;52.058;4.824;2023-07-20T10:16:36;13.63;;;12.63;;
74908;SDS011;63468;52.058;4.824;2023-07-20T10:21:37;13.77;;;12.77;;
74908;SDS011;63468;52.058;4.824;2023-07-20T10:24:06;13.52;;;12.52;;
74908;SDS011;63468;52.058;4.824;2023-07-20T10:26:32;13.40;;;12.40;;
74908;SDS011;63468;52.058;4.824;2023-07-20T10:28:57;13.25;;;12.15;;
74908;SDS011;63468;52.058;4.824;2023-07-20T10:31:23;13.70;;;12.63;;
74908;SDS011;63468;52.058;4.824;2023-07-20T10:33:49;13.65;;;12.65;;
74908;SDS011;63468;52.058;4.824;2023-07-20T10:36:15;14.05;;;12.70;;
74908;SDS011;63468;52.058;4.824;2023-07-20T10:43:49;13.38;;;12.27;;
74908;SDS011;63468;52.058;4.824;2023-07-20T10:46:33;13.80;;;12.68;;
74908;SDS011;63468;52.058;4.824;2023-07-20T10:49:09;13.35;;;12.25;;
74908;SDS011;63468;52.058;4.824;2023-07-20T10:51:42;12.30;;;11.30;;
74908;SDS011;63468;52.058;4.824;2023-07-20T10:54:12;15.90;;;11.70;;
74908;SDS011;63468;52.058;4.824;2023-07-20T10:56:54;11.50;;;10.52;;
74908;SDS011;63468;52.058;4.824;2023-07-20T10:59:37;11.32;;;10.32;;
74908;SDS011;63468;52.058;4.824;2023-07-20T11:02:09;11.65;;;10.75;;
74908;SDS011;63468;52.058;4.824;2023-07-20T11:04:41;11.85;;;10.95;;
74908;SDS011;63468;52.058;4.824;2023-07-20T11:07:07;11.02;;;10.10;;
74908;SDS011;63468;52.058;4.824;2023-07-20T11:09:36;85.82;;;58.25;;
74908;SDS011;63468;52.058;4.824;2023-07-20T11:12:09;10.90;;;10.00;;
74908;SDS011;63468;52.058;4.824;2023-07-20T11:14:35;10.60;;;9.70;;
74908;SDS011;63468;52.058;4.824;2023-07-20T11:17:15;11.40;;;10.50;;
74908;SDS011;63468;52.058;4.824;2023-07-20T11:19:43;11.38;;;10.38;;
74908;SDS011;63468;52.058;4.824;2023-07-20T11:22:08;10.32;;;9.52;;
74908;SDS011;63468;52.058;4.824;2023-07-20T11:24:34;11.10;;;9.77;;
74908;SDS011;63468;52.058;4.824;2023-07-20T11:27:03;10.50;;;9.60;;
74908;SDS011;63468;52.058;4.824;2023-07-20T11:29:29;10.07;;;9.07;;
74908;SDS011;63468;52.058;4.824;2023-07-20T11:31:54;10.18;;;9.30;;
74908;SDS011;63468;52.058;4.824;2023-07-20T11:34:20;9.80;;;8.98;;
74908;SDS011;63468;52.058;4.824;2023-07-20T11:36:46;10.48;;;9.57;;
74908;SDS011;63468;52.058;4.824;2023-07-20T11:39:13;11.55;;;9.98;;
74908;SDS011;63468;52.058;4.824;2023-07-20T11:41:43;9.85;;;9.05;;
74908;SDS011;63468;52.058;4.824;2023-07-20T11:44:11;9.63;;;8.75;;
74908;SDS011;63468;52.058;4.824;2023-07-20T11:46:38;10.52;;;9.43;;
74908;SDS011;63468;52.058;4.824;2023-07-20T11:49:04;9.60;;;8.70;;
74908;SDS011;63468;52.058;4.824;2023-07-20T11:51:30;9.52;;;8.63;;
74908;SDS011;63468;52.058;4.824;2023-07-20T11:53:56;10.00;;;9.10;;
74908;SDS011;63468;52.058;4.824;2023-07-20T11:56:22;8.95;;;8.10;;
74908;SDS011;63468;52.058;4.824;2023-07-20T11:58:49;9.18;;;8.27;;
74908;SDS011;63468;52.058;4.824;2023-07-20T12:01:14;9.32;;;8.52;;
74908;SDS011;63468;52.058;4.824;2023-07-20T12:03:41;8.10;;;7.30;;
74908;SDS011;63468;52.058;4.824;2023-07-20T12:06:07;8.13;;;7.32;;
74908;SDS011;63468;52.058;4.824;2023-07-20T12:08:33;7.80;;;7.00;;
74908;SDS011;63468;52.058;4.824;2023-07-20T12:10:59;8.95;;;7.25;;
74908;SDS011;63468;52.058;4.824;2023-07-20T12:13:35;9.32;;;7.82;;
74908;SDS011;63468;52.058;4.824;2023-07-20T12:16:06;10.80;;;9.80;;
74908;SDS011;63468;52.058;4.824;2023-07-20T12:18:39;9.95;;;9.05;;
74908;SDS011;63468;52.058;4.824;2023-07-20T12:21:05;10.57;;;9.57;;
74908;SDS011;63468;52.058;4.824;2023-07-20T12:23:40;9.35;;;8.55;;
74908;SDS011;63468;52.058;4.824;2023-07-20T12:26:08;11.23;;;7.95;;
74908;SDS011;63468;52.058;4.824;2023-07-20T12:28:35;8.70;;;7.90;;
74908;SDS011;63468;52.058;4.824;2023-07-20T12:31:03;10.07;;;9.07;;
74908;SDS011;63468;52.058;4.824;2023-07-20T12:33:28;8.98;;;8.18;;
74908;SDS011;63468;52.058;4.824;2023-07-20T12:35:54;9.57;;;8.55;;
74908;SDS011;63468;52.058;4.824;2023-07-20T12:38:21;9.35;;;8.43;;
74908;SDS011;63468;52.058;4.824;2023-07-20T12:40:47;9.15;;;8.35;;
74908;SDS011;63468;52.058;4.824;2023-07-20T12:43:12;8.40;;;7.53;;
74908;SDS011;63468;52.058;4.824;2023-07-20T12:45:38;9.23;;;8.43;;
74908;SDS011;63468;52.058;4.824;2023-07-20T12:48:03;8.50;;;7.68;;
74908;SDS011;63468;52.058;4.824;2023-07-20T12:50:28;8.98;;;8.18;;
74908;SDS011;63468;52.058;4.824;2023-07-20T12:52:54;8.43;;;7.63;;
74908;SDS011;63468;52.058;4.824;2023-07-20T12:55:20;9.75;;;8.85;;
74908;SDS011;63468;52.058;4.824;2023-07-20T12:57:45;9.05;;;8.10;;
74908;SDS011;63468;52.058;4.824;2023-07-20T13:00:11;9.05;;;8.25;;
74908;SDS011;63468;52.058;4.824;2023-07-20T13:02:37;8.88;;;8.00;;
74908;SDS011;63468;52.058;4.824;2023-07-20T13:05:03;9.50;;;8.60;;
74908;SDS011;63468;52.058;4.824;2023-07-20T13:07:29;9.25;;;8.45;;
74908;SDS011;63468;52.058;4.824;2023-07-20T13:09:55;8.95;;;8.15;;
74908;SDS011;63468;52.058;4.824;2023-07-20T13:12:21;8.68;;;7.88;;
74908;SDS011;63468;52.058;4.824;2023-07-20T13:14:46;8.52;;;7.72;;
74908;SDS011;63468;52.058;4.824;2023-07-20T13:17:11;9.20;;;8.40;;
74908;SDS011;63468;52.058;4.824;2023-07-20T13:19:37;7.90;;;7.20;;
74908;SDS011;63468;52.058;4.824;2023-07-20T13:22:02;12.23;;;11.02;;
74908;SDS011;63468;52.058;4.824;2023-07-20T13:24:28;10.20;;;9.30;;
74908;SDS011;63468;52.058;4.824;2023-07-20T13:26:53;8.25;;;7.45;;
74908;SDS011;63468;52.058;4.824;2023-07-20T13:29:19;8.20;;;7.40;;
74908;SDS011;63468;52.058;4.824;2023-07-20T13:31:44;7.78;;;6.97;;
74908;SDS011;63468;52.058;4.824;2023-07-20T13:34:09;10.65;;;7.45;;
74908;SDS011;63468;52.058;4.824;2023-07-20T13:36:35;8.70;;;7.88;;
74908;SDS011;63468;52.058;4.824;2023-07-20T13:39:00;7.72;;;6.93;;
74908;SDS011;63468;52.058;4.824;2023-07-20T13:41:25;8.32;;;7.50;;
74908;SDS011;63468;52.058;4.824;2023-07-20T13:43:50;9.57;;;7.50;;
74908;SDS011;63468;52.058;4.824;2023-07-20T13:46:16;8.88;;;7.75;;
74908;SDS011;63468;52.058;4.824;2023-07-20T13:48:41;8.27;;;7.40;;
74908;SDS011;63468;52.058;4.824;2023-07-20T13:51:07;8.13;;;7.32;;
74908;SDS011;63468;52.058;4.824;2023-07-20T13:53:32;7.97;;;7.28;;
74908;SDS011;63468;52.058;4.824;2023-07-20T13:55:57;8.73;;;7.93;;
74908;SDS011;63468;52.058;4.824;2023-07-20T13:58:23;9.43;;;8.27;;
74908;SDS011;63468;52.058;4.824;2023-07-20T14:00:48;8.85;;;8.05;;
74908;SDS011;63468;52.058;4.824;2023-07-20T14:03:13;8.77;;;7.50;;
74908;SDS011;63468;52.058;4.824;2023-07-20T14:05:39;9.25;;;8.35;;
74908;SDS011;63468;52.058;4.824;2023-07-20T14:08:04;9.65;;;8.15;;
74908;SDS011;63468;52.058;4.824;2023-07-20T14:10:30;8.15;;;7.25;;
74908;SDS011;63468;52.058;4.824;2023-07-20T14:12:55;8.25;;;7.43;;
74908;SDS011;63468;52.058;4.824;2023-07-20T14:15:21;8.93;;;8.13;;
74908;SDS011;63468;52.058;4.824;2023-07-20T14:17:46;8.73;;;7.82;;
74908;SDS011;63468;52.058;4.824;2023-07-20T14:20:12;9.20;;;7.03;;
74908;SDS011;63468;52.058;4.824;2023-07-20T14:22:37;8.02;;;7.22;;
74908;SDS011;63468;52.058;4.824;2023-07-20T14:25:02;8.13;;;7.35;;
74908;SDS011;63468;52.058;4.824;2023-07-20T14:27:28;7.97;;;7.18;;
74908;SDS011;63468;52.058;4.824;2023-07-20T14:29:53;7.95;;;7.20;;
74908;SDS011;63468;52.058;4.824;2023-07-20T14:32:19;9.20;;;7.57;;
74908;SDS011;63468;52.058;4.824;2023-07-20T14:34:45;8.70;;;7.90;;
74908;SDS011;63468;52.058;4.824;2023-07-20T14:37:10;8.88;;;7.40;;
74908;SDS011;63468;52.058;4.824;2023-07-20T14:39:36;8.20;;;7.30;;
74908;SDS011;63468;52.058;4.824;2023-07-20T14:42:02;8.77;;;7.72;;